createdAt,value
2023-05-18T00:06:23.277Z,56.30
2023-05-18T00:17:17.241Z,56.85
2023-05-18T01:19:32.620Z,58.46
2023-05-18T01:29:59.174Z,58.53
2023-05-18T01:40:33.307Z,58.33
2023-05-18T01:51:05.511Z,58.57
2023-05-18T02:14:52.971Z,58.82
2023-05-18T02:25:18.978Z,59.54
2023-05-18T02:35:33.856Z,59.95
2023-05-18T02:46:04.759Z,60.88
2023-05-18T03:08:00.626Z,60.62
2023-05-18T03:19:05.149Z,60.57
2023-05-18T03:29:42.387Z,60.54
2023-05-18T03:40:21.101Z,60.02
2023-05-18T03:50:36.226Z,59.14
2023-05-18T04:00:59.633Z,58.47
2023-05-18T04:12:02.838Z,56.56
2023-05-18T04:22:31.610Z,51.59
2023-05-18T04:33:00.565Z,42.48
2023-05-18T04:43:42.223Z,40.06
2023-05-18T04:54:11.371Z,38.22
2023-05-18T05:26:50.962Z,32.33
2023-05-18T05:49:12.732Z,40.98
2023-05-18T06:11:38.822Z,43.21
2023-05-18T06:22:33.048Z,44.49
2023-05-18T06:32:58.143Z,44.97
2023-05-18T06:43:01.883Z,44.85
2023-05-18T06:53:18.982Z,44.85
2023-05-18T07:03:26.137Z,44.55
2023-05-18T07:13:31.496Z,44.76
2023-05-18T07:23:37.649Z,44.01
2023-05-18T07:33:42.559Z,43.55
2023-05-18T07:43:46.149Z,43.14
2023-05-18T07:53:52.338Z,43.02
2023-05-18T08:03:57.220Z,42.41
2023-05-18T08:14:01.199Z,41.49
2023-05-18T08:24:08.483Z,39.85
2023-05-18T08:34:12.731Z,40.03
2023-05-18T08:44:21.826Z,39.95
2023-05-18T08:54:26.594Z,38.76
2023-05-18T09:04:37.749Z,38.14
2023-05-18T09:14:43.885Z,38.27
2023-05-18T09:24:49.128Z,38.44
2023-05-18T09:34:55.679Z,38.39
2023-05-18T09:44:59.312Z,38.65
2023-05-18T09:55:06.558Z,37.80
2023-05-18T10:05:23.224Z,37.51
2023-05-18T10:15:28.538Z,37.17
2023-05-18T10:25:33.648Z,37.23
2023-05-18T10:35:40.086Z,37.23
2023-05-18T10:45:49.838Z,36.39
2023-05-18T10:55:54.812Z,35.99
2023-05-18T11:06:05.263Z,35.46
2023-05-18T11:16:10.552Z,35.03
2023-05-18T11:26:16.656Z,34.34
2023-05-18T11:36:26.675Z,33.70
2023-05-18T11:46:30.309Z,33.73
2023-05-18T11:56:34.191Z,33.69
2023-05-18T12:06:40.153Z,33.69
2023-05-18T12:16:46.573Z,33.24
2023-05-18T12:26:51.467Z,32.68
2023-05-18T12:36:56.258Z,32.33
2023-05-18T12:47:02.402Z,32.22
2023-05-18T12:57:10.234Z,33.04
2023-05-18T13:07:15.890Z,33.56
2023-05-18T13:17:23.358Z,33.11
2023-05-18T13:27:29.984Z,33.72
2023-05-18T13:37:33.617Z,33.80
2023-05-18T13:47:37.288Z,32.28
2023-05-18T13:58:07.756Z,32.82
2023-05-18T14:19:54.305Z,31.86
2023-05-18T14:29:59.562Z,31.44
2023-05-18T14:40:04.756Z,30.87
2023-05-18T14:50:08.850Z,30.56
2023-05-18T15:00:15.344Z,31.01
2023-05-18T15:10:21.084Z,31.11
2023-05-18T15:20:26.502Z,31.64
2023-05-18T15:30:30.397Z,31.73
2023-05-18T15:40:34.294Z,31.61
2023-05-18T15:50:38.080Z,31.85
2023-05-18T16:00:41.644Z,31.72
2023-05-18T16:10:46.553Z,32.40
2023-05-18T16:20:50.088Z,32.61
2023-05-18T16:30:55.437Z,33.38
2023-05-18T16:40:58.977Z,34.09
2023-05-18T16:51:08.630Z,34.79
2023-05-18T17:01:23.529Z,35.27
2023-05-18T17:11:30.789Z,35.40
2023-05-18T17:21:34.478Z,36.05
2023-05-18T17:31:39.118Z,36.30
2023-05-18T17:53:56.900Z,37.41
2023-05-18T20:23:34.766Z,46.56
2023-05-18T20:45:15.432Z,48.27
2023-05-18T20:56:16.172Z,48.40
2023-05-18T21:07:25.809Z,49.03
2023-05-18T22:31:40.608Z,57.04
2023-05-18T22:41:53.925Z,57.20
2023-05-18T23:45:18.902Z,58.31
2023-05-18T23:55:54.652Z,58.67
